Time;durP1;ratioP1;P1;durP2;ratioP2;P2;SDS_P1;SDS_P2;PMS_P1;PMS_P2;Temp;Humidity;BMP_temperature;BMP_pressure;BME280_temperature;BME280_humidity;BME280_pressure;Samples;Min_cycle;Max_cycle;Signal;HPM_P1;HPM_P2
2022/12/09 00:02:11;;;;;;;38.10;13.60;;;;;;;-4.23;97.76;99110.06;105981;1292;72516;-71
2022/12/09 00:04:59;;;;;;;38.10;14.00;;;;;;;-4.31;97.28;99116.07;105990;1290;59856;-73
2022/12/09 00:07:49;;;;;;;35.00;13.40;;;;;;;-4.39;97.16;99116.49;105758;1296;59258;-70
2022/12/09 00:10:37;;;;;;;36.10;13.90;;;;;;;-4.44;97.41;99119.06;106010;1290;73784;-72
2022/12/09 00:13:25;;;;;;;33.50;14.00;;;;;;;-4.49;97.47;99120.60;105978;1292;68621;-72
2022/12/09 00:16:13;;;;;;;33.70;12.40;;;;;;;-4.58;97.41;99117.94;105168;1298;1002428;-71
2022/12/09 00:19:02;;;;;;;39.30;13.70;;;;;;;-4.68;96.92;99122.23;105763;1292;57185;-71
2022/12/09 00:21:49;;;;;;;26.20;10.10;;;;;;;-4.79;96.57;99119.27;105977;1284;61242;-72
2022/12/09 00:24:36;;;;;;;34.60;13.30;;;;;;;-4.92;96.61;99120.86;105268;1292;1002400;-72
2022/12/09 00:27:24;;;;;;;40.00;14.70;;;;;;;-5.03;96.98;99122.55;105993;1292;68763;-73
2022/12/09 00:30:12;;;;;;;37.70;14.10;;;;;;;-5.10;97.26;99127.25;105790;1286;71438;-70
2022/12/09 00:32:59;;;;;;;36.20;14.10;;;;;;;-5.16;97.05;99123.27;105978;1282;58499;-71
2022/12/09 00:35:47;;;;;;;36.10;14.40;;;;;;;-5.22;97.12;99127.77;106003;1292;60083;-71
2022/12/09 00:38:35;;;;;;;34.90;14.20;;;;;;;-5.25;97.38;99137.89;105975;1292;73961;-71
2022/12/09 00:41:24;;;;;;;36.60;14.00;;;;;;;-5.29;97.30;99140.77;105989;1287;66910;-71
2022/12/09 00:44:12;;;;;;;34.20;12.40;;;;;;;-5.35;97.26;99145.41;105257;1284;1002723;-71
2022/12/09 00:46:59;;;;;;;26.60;9.60;;;;;;;-5.41;96.93;99146.28;105985;1291;58070;-71
2022/12/09 00:49:47;;;;;;;26.10;9.70;;;;;;;-5.51;96.80;99152.59;105917;1292;61233;-73
2022/12/09 00:52:35;;;;;;;28.70;10.20;;;;;;;-5.61;96.72;99153.56;105981;1291;74019;-70
2022/12/09 00:55:24;;;;;;;24.60;9.60;;;;;;;-5.72;96.71;99157.46;105162;1292;1002961;-71
2022/12/09 00:58:13;;;;;;;27.70;10.20;;;;;;;-5.82;96.73;99157.38;105236;1292;1002042;-72
2022/12/09 01:01:00;;;;;;;25.60;9.90;;;;;;;-5.92;96.67;99156.59;105985;1291;59360;-72
2022/12/09 01:03:48;;;;;;;27.20;10.70;;;;;;;-5.99;96.57;99157.81;105911;1285;58665;-71
2022/12/09 01:06:36;;;;;;;30.50;10.70;;;;;;;-6.04;96.48;99160.02;105994;1291;73894;-67
2022/12/09 01:09:24;;;;;;;26.70;9.80;;;;;;;-6.08;96.54;99159.09;105987;1290;68861;-67
2022/12/09 01:12:11;;;;;;;26.80;10.10;;;;;;;-6.10;96.84;99156.37;105966;1291;72406;-66
2022/12/09 01:14:59;;;;;;;24.90;10.50;;;;;;;-6.11;96.45;99154.33;105918;1291;57328;-65
2022/12/09 01:17:46;;;;;;;24.80;9.80;;;;;;;-6.13;96.54;99152.13;105932;1292;58954;-66
2022/12/09 01:20:34;;;;;;;22.80;9.80;;;;;;;-6.13;96.79;99156.10;105264;1288;1003011;-67
2022/12/09 01:23:22;;;;;;;20.00;9.20;;;;;;;-6.13;96.72;99158.00;106013;1291;67587;-67
2022/12/09 01:26:11;;;;;;;22.60;9.30;;;;;;;-6.16;96.53;99156.16;105880;1290;72491;-67
2022/12/09 01:28:59;;;;;;;20.20;8.20;;;;;;;-6.19;96.28;99154.33;105879;1290;58775;-66
2022/12/09 01:31:47;;;;;;;20.50;7.70;;;;;;;-6.24;96.03;99158.23;105265;1292;1002246;-66
2022/12/09 01:34:34;;;;;;;24.80;9.60;;;;;;;-6.28;96.17;99151.96;105251;1291;1002086;-66
2022/12/09 01:37:23;;;;;;;25.70;9.60;;;;;;;-6.31;95.76;99150.84;106003;1291;69083;-64
2022/12/09 01:40:16;;;;;;;23.80;9.60;;;;;;;-6.35;95.54;99148.49;105775;1300;72604;-66
2022/12/09 01:43:16;;;;;;;21.50;7.80;;;;;;;-6.39;95.80;99148.75;105881;1292;57202;-67
2022/12/09 01:46:07;;;;;;;23.50;9.10;;;;;;;-6.41;95.75;99153.30;105038;1294;1002946;-67
2022/12/09 01:48:56;;;;;;;22.20;8.90;;;;;;;-6.45;95.46;99152.52;105705;1290;73829;-67
2022/12/09 01:51:55;;;;;;;20.70;7.60;;;;;;;-6.53;95.03;99153.05;105521;1289;66690;-68
2022/12/09 01:54:46;;;;;;;20.90;8.00;;;;;;;-6.62;94.86;99151.34;104673;1294;1002881;-65
2022/12/09 01:57:36;;;;;;;18.10;6.80;;;;;;;-6.69;95.24;99150.46;105397;1298;57724;-65
2022/12/09 02:00:24;;;;;;;22.40;8.10;;;;;;;-6.75;95.56;99150.59;104817;1297;1002195;-66
2022/12/09 02:03:12;;;;;;;20.60;7.20;;;;;;;-6.82;95.67;99147.30;104821;1300;1014699;-64
2022/12/09 02:06:01;;;;;;;24.30;9.30;;;;;;;-6.89;95.35;99148.64;104787;1295;1002176;-64
2022/12/09 02:08:50;;;;;;;29.40;10.20;;;;;;;-6.92;95.25;99147.34;104866;1295;1002274;-66
2022/12/09 02:12:10;;;;;;;28.90;10.40;;;;;;;-6.91;95.97;99147.33;105377;1285;57352;-64
2022/12/09 02:15:12;;;;;;;23.50;9.00;;;;;;;-6.88;95.80;99147.77;105670;1293;58785;-66
2022/12/09 02:18:20;;;;;;;21.60;8.80;;;;;;;-6.84;96.01;99145.96;105553;1304;72723;-65
2022/12/09 02:21:39;;;;;;;23.40;8.80;;;;;;;-6.80;95.57;99150.02;104819;1297;1002019;-66
2022/12/09 02:24:52;;;;;;;20.80;7.60;;;;;;;-6.81;95.33;99153.16;105180;1292;1002285;-66
2022/12/09 02:28:01;;;;;;;19.40;7.60;;;;;;;-6.88;95.16;99153.61;105116;1291;1002739;-66
2022/12/09 02:31:31;;;;;;;18.00;7.50;;;;;;;-6.94;94.77;99153.92;105900;1292;61614;-66
2022/12/09 02:34:28;;;;;;;19.90;7.20;;;;;;;-7.05;95.20;99153.81;105892;1295;74300;-65
2022/12/09 02:37:43;;;;;;;16.20;6.20;;;;;;;-7.15;94.97;99157.97;105873;1290;69008;-64
2022/12/09 02:40:44;;;;;;;22.60;8.60;;;;;;;-7.23;94.69;99161.94;105791;1299;73865;-66
2022/12/09 02:43:38;;;;;;;31.80;10.00;;;;;;;-7.27;94.78;99161.50;105806;1288;59773;-64
2022/12/09 02:46:36;;;;;;;25.30;9.20;;;;;;;-7.29;94.79;99162.41;105012;1293;1002350;-64
2022/12/09 02:49:28;;;;;;;28.50;9.60;;;;;;;-7.32;95.49;99165.73;105884;1292;73266;-65
2022/12/09 02:52:18;;;;;;;25.50;9.40;;;;;;;-7.35;95.13;99164.41;105751;1295;66537;-65
2022/12/09 02:55:08;;;;;;;21.50;8.70;;;;;;;-7.36;94.99;99167.70;105827;1295;70537;-65
2022/12/09 02:58:00;;;;;;;22.50;7.80;;;;;;;-7.44;94.77;99163.39;105811;1296;57710;-66
2022/12/09 03:00:50;;;;;;;22.40;8.70;;;;;;;-7.44;94.45;99172.16;105853;1292;58740;-66
2022/12/09 03:03:38;;;;;;;22.20;8.30;;;;;;;-7.48;94.54;99173.43;105772;1293;73027;-67
2022/12/09 03:06:38;;;;;;;27.80;9.50;;;;;;;-7.53;94.98;99174.23;105183;1290;1002661;-65
2022/12/09 03:09:32;;;;;;;28.70;9.50;;;;;;;-7.58;94.56;99168.45;105064;1293;1002893;-65
2022/12/09 03:12:24;;;;;;;28.00;10.50;;;;;;;-7.59;94.68;99167.06;105727;1297;59658;-65
2022/12/09 03:15:16;;;;;;;29.70;9.40;;;;;;;-7.58;94.74;99168.96;105880;1290;57894;-64
2022/12/09 03:18:10;;;;;;;23.40;8.70;;;;;;;-7.55;95.19;99166.49;105919;1290;72910;-64
2022/12/09 03:21:00;;;;;;;25.10;8.70;;;;;;;-7.52;95.00;99170.92;105901;1297;67557;-64
2022/12/09 03:23:51;;;;;;;22.40;8.90;;;;;;;-7.46;95.16;99166.84;105655;1286;72866;-65
2022/12/09 03:26:41;;;;;;;20.10;7.70;;;;;;;-7.36;95.17;99174.08;105175;1292;1002051;-64
2022/12/09 03:29:32;;;;;;;21.80;7.70;;;;;;;-7.27;94.76;99173.05;105066;1300;1002717;-67
2022/12/09 03:32:25;;;;;;;24.70;8.40;;;;;;;-7.25;94.04;99176.13;105719;1286;73142;-65
2022/12/09 03:35:23;;;;;;;18.80;6.70;;;;;;;-7.28;94.10;99176.33;105022;1295;1002711;-66
2022/12/09 03:38:17;;;;;;;22.40;8.20;;;;;;;-7.36;93.73;99174.94;105769;1292;72623;-65
2022/12/09 03:41:23;;;;;;;16.90;6.50;;;;;;;-7.41;93.60;99181.92;105874;1292;57223;-64
2022/12/09 03:44:19;;;;;;;22.50;7.20;;;;;;;-7.51;93.13;99182.97;105184;1288;1002170;-67
2022/12/09 03:47:08;;;;;;;19.40;6.50;;;;;;;-7.58;93.70;99186.03;104318;1298;1002341;-65
2022/12/09 03:49:57;;;;;;;16.90;5.70;;;;;;;-7.64;94.04;99185.62;105878;1287;67219;-64
2022/12/09 03:52:55;;;;;;;27.70;8.40;;;;;;;-7.70;94.43;99185.55;105909;1292;72660;-64
2022/12/09 03:56:14;;;;;;;26.80;8.90;;;;;;;-7.71;94.52;99185.75;105871;1297;59718;-65
2022/12/09 03:59:06;;;;;;;23.10;8.70;;;;;;;-7.69;94.84;99183.29;105767;1290;58830;-64
2022/12/09 04:01:55;;;;;;;24.20;8.30;;;;;;;-7.66;94.83;99182.04;105174;1290;1002130;-64
2022/12/09 04:04:43;;;;;;;19.10;7.80;;;;;;;-7.61;94.91;99186.59;105815;1292;66469;-67
2022/12/09 04:07:31;;;;;;;23.00;8.40;;;;;;;-7.58;95.22;99173.09;105888;1298;73624;-66
2022/12/09 04:10:19;;;;;;;20.40;8.00;;;;;;;-7.44;95.03;99180.77;105858;1294;59859;-67
2022/12/09 04:13:07;;;;;;;22.00;7.80;;;;;;;-7.38;94.87;99183.94;105949;1290;58877;-66
2022/12/09 04:15:54;;;;;;;19.60;8.00;;;;;;;-7.32;94.77;99182.63;105839;1290;72839;-69
2022/12/09 04:18:42;;;;;;;27.00;9.00;;;;;;;-7.28;94.39;99185.30;105897;1296;67554;-66
2022/12/09 04:21:30;;;;;;;20.70;7.70;;;;;;;-7.28;93.90;99189.45;105895;1284;72921;-67
2022/12/09 04:24:19;;;;;;;19.60;7.40;;;;;;;-7.34;93.21;99194.56;105148;1290;1002797;-67
2022/12/09 04:27:16;;;;;;;22.60;7.90;;;;;;;-7.42;93.06;99194.02;105184;1291;1002509;-65
2022/12/09 04:30:10;;;;;;;15.40;5.60;;;;;;;-7.51;93.00;99196.40;105748;1293;71894;-68
2022/12/09 04:32:59;;;;;;;16.50;5.50;;;;;;;-7.62;92.35;99203.15;105148;1290;1002519;-67
2022/12/09 04:35:47;;;;;;;22.50;7.20;;;;;;;-7.74;92.67;99206.13;105878;1291;73562;-66
2022/12/09 04:38:34;;;;;;;23.00;8.50;;;;;;;-7.81;93.26;99209.50;105874;1290;58246;-67
2022/12/09 04:41:22;;;;;;;19.40;6.70;;;;;;;-7.82;93.01;99212.10;104413;1292;1003012;-67
2022/12/09 04:44:10;;;;;;;20.10;7.40;;;;;;;-7.81;93.70;99213.64;105917;1288;73059;-66
2022/12/09 04:46:58;;;;;;;17.10;6.40;;;;;;;-7.83;93.94;99213.32;105169;1292;1002318;-67
2022/12/09 04:49:45;;;;;;;15.20;5.80;;;;;;;-7.86;94.42;99218.02;105886;1298;73908;-68
2022/12/09 04:52:33;;;;;;;12.90;5.20;;;;;;;-7.90;94.06;99220.14;105893;1291;59232;-66
2022/12/09 04:55:21;;;;;;;18.30;7.10;;;;;;;-7.95;94.25;99218.34;105157;1291;1002591;-67
2022/12/09 04:58:09;;;;;;;22.50;7.90;;;;;;;-7.96;94.32;99218.36;105141;1292;1002951;-65
2022/12/09 05:00:57;;;;;;;20.20;7.00;;;;;;;-7.95;94.16;99219.38;105900;1297;68004;-67
2022/12/09 05:03:51;;;;;;;18.70;6.30;;;;;;;-7.92;94.29;99218.99;105869;1297;72364;-65
2022/12/09 05:06:40;;;;;;;22.50;7.10;;;;;;;-7.88;94.42;99223.23;105859;1291;57921;-67
2022/12/09 05:09:28;;;;;;;17.50;6.40;;;;;;;-7.82;94.85;99223.83;105910;1292;59990;-66
2022/12/09 05:12:16;;;;;;;17.50;6.80;;;;;;;-7.79;94.97;99228.42;105877;1285;73206;-68
2022/12/09 05:15:04;;;;;;;20.30;6.90;;;;;;;-7.74;94.83;99230.92;105883;1297;68102;-66
2022/12/09 05:17:52;;;;;;;16.90;5.80;;;;;;;-7.71;94.43;99231.56;105894;1285;72694;-66
2022/12/09 05:20:40;;;;;;;16.80;6.40;;;;;;;-7.64;94.55;99233.16;105888;1290;58189;-65
2022/12/09 05:23:28;;;;;;;17.40;6.50;;;;;;;-7.60;94.07;99230.52;105924;1290;60185;-66
2022/12/09 05:26:19;;;;;;;15.60;6.20;;;;;;;-7.59;93.72;99234.80;105923;1293;71787;-67
2022/12/09 05:29:07;;;;;;;15.60;6.60;;;;;;;-7.58;94.61;99233.59;105140;1292;1002695;-66
2022/12/09 05:31:55;;;;;;;15.10;6.20;;;;;;;-7.54;94.43;99236.80;105886;1291;72810;-66
2022/12/09 05:34:43;;;;;;;17.20;5.60;;;;;;;-7.51;94.10;99235.02;105946;1292;57176;-66
2022/12/09 05:37:32;;;;;;;12.80;5.10;;;;;;;-7.51;94.04;99234.49;105974;1290;60392;-68
2022/12/09 05:40:20;;;;;;;14.60;5.20;;;;;;;-7.50;93.67;99238.98;105987;1288;71734;-66
2022/12/09 05:43:08;;;;;;;14.00;4.90;;;;;;;-7.52;93.96;99239.86;105243;1291;1002960;-66
2022/12/09 05:45:56;;;;;;;11.20;4.00;;;;;;;-7.49;94.27;99244.81;105972;1291;72686;-68
2022/12/09 05:48:45;;;;;;;16.20;6.40;;;;;;;-7.47;94.31;99240.63;105056;1290;1015091;-67
2022/12/09 05:51:33;;;;;;;17.30;6.40;;;;;;;-7.46;93.85;99235.45;105993;1292;60163;-67
2022/12/09 05:54:21;;;;;;;16.40;6.00;;;;;;;-7.43;93.88;99234.70;105899;1290;73153;-67
2022/12/09 05:57:09;;;;;;;16.00;5.90;;;;;;;-7.39;94.45;99230.66;105263;1291;1002004;-66
2022/12/09 05:59:57;;;;;;;15.30;5.40;;;;;;;-7.34;94.25;99230.92;105960;1292;71165;-67
2022/12/09 06:02:45;;;;;;;14.30;5.30;;;;;;;-7.28;94.05;99225.81;105954;1291;58123;-68
2022/12/09 06:05:35;;;;;;;17.60;6.10;;;;;;;-7.19;94.63;99225.48;105888;1291;58801;-70
2022/12/09 06:08:23;;;;;;;14.90;5.80;;;;;;;-7.15;94.16;99228.86;105890;1290;72828;-65
2022/12/09 06:11:18;;;;;;;14.80;5.90;;;;;;;-7.13;94.18;99230.02;106020;1282;66187;-66
2022/12/09 06:14:09;;;;;;;14.00;4.90;;;;;;;-7.14;94.16;99230.05;105912;1292;72551;-66
2022/12/09 06:16:58;;;;;;;13.90;5.00;;;;;;;-7.16;93.89;99234.73;105986;1292;57658;-67
2022/12/09 06:19:46;;;;;;;15.70;5.90;;;;;;;-7.20;93.66;99240.14;105267;1290;1002334;-66
2022/12/09 06:22:34;;;;;;;14.50;5.30;;;;;;;-7.22;94.46;99242.59;105917;1292;71781;-66
2022/12/09 06:25:23;;;;;;;15.70;6.20;;;;;;;-7.25;93.95;99245.23;105260;1291;1002837;-66
2022/12/09 06:28:11;;;;;;;34.40;12.10;;;;;;;-7.25;94.06;99244.55;105983;1290;71345;-67
2022/12/09 06:30:59;;;;;;;22.20;7.40;;;;;;;-7.27;94.11;99250.45;105865;1292;58014;-66
2022/12/09 06:33:47;;;;;;;44.00;15.30;;;;;;;-7.27;93.74;99253.39;105992;1292;60119;-67
2022/12/09 06:36:45;;;;;;;40.10;14.10;;;;;;;-7.25;93.70;99258.70;105210;1288;1002311;-66
2022/12/09 06:39:34;;;;;;;27.30;10.40;;;;;;;-7.21;94.19;99262.39;105977;1283;67582;-65
2022/12/09 06:42:21;;;;;;;20.20;9.90;;;;;;;-7.12;94.30;99262.77;105981;1291;69982;-67
2022/12/09 06:45:10;;;;;;;18.30;7.40;;;;;;;-7.07;93.39;99266.13;105946;1290;57258;-66
2022/12/09 06:47:58;;;;;;;20.00;8.40;;;;;;;-7.06;93.36;99267.64;106004;1292;59997;-68
2022/12/09 06:50:46;;;;;;;19.40;7.40;;;;;;;-7.02;94.00;99266.18;105996;1284;72829;-70
2022/12/09 06:53:34;;;;;;;16.90;6.90;;;;;;;-6.98;93.47;99269.58;105143;1292;1002382;-68
2022/12/09 06:56:22;;;;;;;16.60;6.20;;;;;;;-6.94;93.64;99265.52;105979;1291;71257;-66
2022/12/09 06:59:10;;;;;;;15.10;6.20;;;;;;;-6.89;94.16;99261.80;105963;1291;57221;-68
2022/12/09 07:01:59;;;;;;;22.50;8.80;;;;;;;-6.86;93.74;99262.98;105219;1284;1002977;-66
2022/12/09 07:04:53;;;;;;;23.90;10.20;;;;;;;-6.86;93.54;99259.68;105955;1291;74301;-68
2022/12/09 07:07:41;;;;;;;16.60;7.40;;;;;;;-6.89;93.58;99252.84;105134;1293;1002407;-64
2022/12/09 07:10:29;;;;;;;22.70;8.20;;;;;;;-6.86;93.20;99258.98;105868;1292;72378;-65
2022/12/09 07:13:18;;;;;;;27.20;11.10;;;;;;;-6.85;93.33;99261.41;104483;1297;1002955;-67
2022/12/09 07:16:06;;;;;;;22.60;8.40;;;;;;;-6.83;92.82;99266.89;105971;1290;60262;-66
2022/12/09 07:18:56;;;;;;;22.20;8.00;;;;;;;-6.85;92.80;99265.86;105954;1292;73283;-67
2022/12/09 07:21:44;;;;;;;20.10;7.80;;;;;;;-6.86;92.06;99273.65;105860;1292;68923;-67
2022/12/09 07:24:32;;;;;;;20.90;7.30;;;;;;;-6.86;92.41;99274.19;105955;1282;71396;-68
2022/12/09 07:27:20;;;;;;;19.30;7.40;;;;;;;-6.90;92.59;99268.38;105963;1284;57928;-66
2022/12/09 07:30:08;;;;;;;19.60;7.00;;;;;;;-6.83;92.34;99279.30;105965;1292;59074;-67
2022/12/09 07:32:56;;;;;;;21.10;7.60;;;;;;;-6.80;92.09;99279.23;105951;1291;73294;-68
2022/12/09 07:35:44;;;;;;;30.00;10.30;;;;;;;-6.77;91.98;99278.14;105993;1291;67764;-66
2022/12/09 07:38:32;;;;;;;24.70;8.50;;;;;;;-6.77;91.76;99278.66;105969;1298;73846;-67
2022/12/09 07:41:20;;;;;;;25.00;9.30;;;;;;;-6.81;91.60;99284.95;105958;1285;57238;-66
2022/12/09 07:44:09;;;;;;;30.40;10.30;;;;;;;-6.83;91.18;99283.95;105913;1284;58859;-65
2022/12/09 07:46:57;;;;;;;27.50;9.50;;;;;;;-6.87;91.64;99282.98;105958;1290;73957;-69
2022/12/09 07:49:46;;;;;;;29.40;10.70;;;;;;;-6.86;92.01;99280.02;105159;1290;1002938;-66
2022/12/09 07:52:34;;;;;;;19.60;7.10;;;;;;;-6.77;92.49;99276.61;105120;1294;1002221;-66
2022/12/09 07:55:22;;;;;;;38.70;11.40;;;;;;;-6.71;92.71;99277.68;105968;1291;58212;-68
2022/12/09 07:58:10;;;;;;;34.90;10.90;;;;;;;-6.62;93.00;99273.54;105987;1291;59029;-66
2022/12/09 08:01:12;;;;;;;28.10;10.10;;;;;;;-6.59;92.38;99278.46;105878;1287;74126;-65
2022/12/09 08:04:01;;;;;;;30.30;10.90;;;;;;;-6.56;92.04;99277.89;105855;1291;67875;-66
2022/12/09 08:06:49;;;;;;;27.20;8.80;;;;;;;-6.56;92.09;99275.13;105936;1282;72937;-65
2022/12/09 08:09:38;;;;;;;21.30;7.20;;;;;;;-6.58;92.19;99270.69;105217;1292;1002553;-65
2022/12/09 08:12:26;;;;;;;23.80;8.00;;;;;;;-6.56;92.13;99270.64;105224;1290;1002008;-65
2022/12/09 08:15:18;;;;;;;17.80;6.50;;;;;;;-6.47;92.41;99274.79;105861;1292;71805;-65
2022/12/09 08:18:06;;;;;;;21.30;7.90;;;;;;;-6.24;92.69;99276.71;105988;1290;67801;-68
2022/12/09 08:20:54;;;;;;;24.10;9.10;;;;;;;-5.21;93.90;99279.94;105222;1290;1002248;-66
2022/12/09 08:23:42;;;;;;;29.80;11.40;;;;;;;-3.82;94.14;99272.48;105942;1288;58729;-71
2022/12/09 08:26:31;;;;;;;28.80;10.50;;;;;;;-2.86;90.51;99265.56;105890;1286;60252;-68
2022/12/09 08:29:20;;;;;;;23.70;9.50;;;;;;;-2.89;87.07;99258.54;105980;1298;72809;-70
2022/12/09 08:32:07;;;;;;;24.70;9.10;;;;;;;-2.51;84.88;99256.64;105966;1291;69437;-73
2022/12/09 08:34:56;;;;;;;22.60;9.40;;;;;;;-0.64;87.10;99257.23;105960;1291;71857;-74
2022/12/09 08:37:44;;;;;;;25.40;11.40;;;;;;;1.34;79.98;99250.50;105979;1275;59442;-73
2022/12/09 08:40:32;;;;;;;26.80;12.10;;;;;;;2.90;71.73;99249.23;105962;1291;61626;-72
2022/12/09 08:43:20;;;;;;;23.70;11.60;;;;;;;4.18;65.91;99244.18;105971;1290;72768;-75
2022/12/09 08:46:10;;;;;;;25.70;11.40;;;;;;;5.15;62.96;99242.91;105989;1298;66928;-72
2022/12/09 08:49:00;;;;;;;21.50;11.40;;;;;;;6.03;60.45;99247.92;105958;1292;73887;-73
2022/12/09 08:51:51;;;;;;;22.10;11.30;;;;;;;6.83;55.46;99248.27;105902;1294;57687;-72
2022/12/09 08:54:39;;;;;;;21.20;10.20;;;;;;;7.22;50.36;99248.66;105878;1292;60369;-71
2022/12/09 08:57:27;;;;;;;21.70;10.60;;;;;;;7.62;49.78;99251.74;105966;1290;73357;-72
2022/12/09 09:00:17;;;;;;;22.80;11.80;;;;;;;7.98;48.13;99249.07;105954;1275;69080;-71
2022/12/09 09:03:04;;;;;;;20.80;10.80;;;;;;;7.54;47.14;99247.41;105959;1282;72452;-71
2022/12/09 09:05:52;;;;;;;23.00;12.80;;;;;;;6.66;49.38;99250.52;105955;1292;58196;-71
2022/12/09 09:08:41;;;;;;;21.80;11.80;;;;;;;7.29;47.95;99249.16;105998;1282;60388;-71
2022/12/09 09:11:30;;;;;;;23.60;12.40;;;;;;;8.01;46.94;99240.02;105951;1284;73604;-73
2022/12/09 09:14:18;;;;;;;24.20;13.20;;;;;;;8.77;45.61;99230.10;105964;1291;68913;-71
2022/12/09 09:17:06;;;;;;;30.30;16.40;;;;;;;9.50;43.86;99224.38;105983;1291;72665;-71
2022/12/09 09:19:55;;;;;;;31.00;17.80;;;;;;;9.90;41.16;99217.66;105977;1291;58491;-71
2022/12/09 09:22:43;;;;;;;33.20;18.20;;;;;;;10.02;40.20;99211.37;105964;1290;61644;-74
2022/12/09 09:25:31;;;;;;;31.10;17.20;;;;;;;10.49;40.02;99214.42;105981;1290;73862;-70
2022/12/09 09:28:19;;;;;;;29.00;16.90;;;;;;;10.72;38.44;99213.98;105968;1291;67697;-71
2022/12/09 09:31:18;;;;;;;27.00;16.80;;;;;;;11.28;38.88;99216.36;105868;1291;70752;-69
2022/12/09 09:34:07;;;;;;;25.00;14.60;;;;;;;11.98;38.62;99208.14;105986;1284;57371;-72
2022/12/09 09:36:55;;;;;;;25.70;14.50;;;;;;;12.49;36.59;99204.48;105977;1290;61696;-71
2022/12/09 09:39:44;;;;;;;27.50;15.20;;;;;;;12.99;36.46;99213.81;105973;1282;72999;-70
2022/12/09 09:42:46;;;;;;;22.70;13.90;;;;;;;13.29;35.42;99213.81;105866;1286;69091;-69
2022/12/09 09:45:35;;;;;;;23.80;15.00;;;;;;;13.36;34.93;99212.64;105859;1276;73617;-72
2022/12/09 09:48:31;;;;;;;20.70;13.30;;;;;;;13.79;34.58;99209.61;105997;1291;58085;-71
2022/12/09 09:51:20;;;;;;;21.60;13.40;;;;;;;14.08;33.53;99208.91;105888;1292;60594;-70
2022/12/09 09:54:12;;;;;;;24.30;14.70;;;;;;;14.36;33.33;99201.88;105972;1290;71758;-70
2022/12/09 09:57:16;;;;;;;22.00;15.00;;;;;;;14.63;32.30;99202.20;105982;1290;69065;-73
2022/12/09 10:00:28;;;;;;;22.70;13.70;;;;;;;14.96;32.17;99198.13;105969;1287;73163;-71
2022/12/09 10:03:33;;;;;;;41.00;22.60;;;;;;;15.22;30.82;99195.92;105960;1291;57711;-72
2022/12/09 10:07:09;;;;;;;50.60;26.10;;;;;;;15.35;30.69;99197.93;105974;1291;60509;-70
2022/12/09 10:10:27;;;;;;;44.20;23.40;;;;;;;15.47;29.68;99191.36;105959;1292;71834;-71
2022/12/09 10:13:58;;;;;;;38.90;21.70;;;;;;;15.17;29.88;99186.30;105980;1284;67862;-72
2022/12/09 10:16:56;;;;;;;27.60;15.00;;;;;;;14.80;30.50;99193.14;105885;1294;72828;-72
2022/12/09 10:19:49;;;;;;;25.60;14.00;;;;;;;14.59;30.43;99193.14;105843;1295;57645;-70
2022/12/09 10:22:58;;;;;;;24.10;14.60;;;;;;;14.49;30.59;99195.42;105849;1283;59073;-72
2022/12/09 10:26:01;;;;;;;19.50;11.70;;;;;;;14.80;30.82;99200.23;105789;1294;74305;-72
2022/12/09 10:29:03;;;;;;;21.10;12.50;;;;;;;14.95;30.67;99200.10;105893;1285;66403;-71
2022/12/09 10:31:54;;;;;;;19.80;12.10;;;;;;;14.81;30.16;99195.11;105772;1293;73635;-71
2022/12/09 10:34:42;;;;;;;20.60;12.40;;;;;;;14.49;30.35;99190.83;105926;1290;58106;-71
2022/12/09 10:37:37;;;;;;;19.10;11.70;;;;;;;14.45;30.81;99194.44;105994;1284;57917;-71
2022/12/09 10:40:51;;;;;;;19.00;11.70;;;;;;;14.55;30.04;99193.59;105968;1292;74313;-71
2022/12/09 10:43:41;;;;;;;19.90;11.50;;;;;;;14.38;30.49;99193.98;105848;1295;69083;-71
2022/12/09 10:46:29;;;;;;;20.90;12.70;;;;;;;14.29;30.76;99195.41;105824;1288;72950;-70
2022/12/09 10:49:21;;;;;;;24.10;10.60;;;;;;;13.84;30.88;99204.41;105865;1287;59388;-70
2022/12/09 10:52:09;;;;;;;21.00;14.00;;;;;;;13.28;31.06;99206.63;105999;1292;60095;-71
2022/12/09 10:54:58;;;;;;;22.80;13.70;;;;;;;13.20;31.94;99215.48;105837;1290;72992;-72
2022/12/09 10:57:46;;;;;;;25.90;15.40;;;;;;;13.07;31.58;99216.84;105732;1287;69071;-72
2022/12/09 11:00:36;;;;;;;23.90;14.90;;;;;;;12.90;31.86;99214.01;105975;1291;72593;-70
2022/12/09 11:03:49;;;;;;;25.80;16.00;;;;;;;12.85;32.31;99214.70;105876;1291;57225;-71
2022/12/09 11:06:40;;;;;;;25.20;14.70;;;;;;;12.90;32.19;99219.61;105982;1291;60077;-71
2022/12/09 11:09:35;;;;;;;23.70;14.80;;;;;;;12.76;32.53;99220.64;105960;1291;71852;-72
2022/12/09 11:12:27;;;;;;;21.90;13.70;;;;;;;12.95;33.09;99220.45;105906;1292;67834;-70
2022/12/09 11:15:42;;;;;;;26.20;16.20;;;;;;;13.20;32.34;99215.29;105956;1292;73985;-71
2022/12/09 11:18:39;;;;;;;26.90;15.10;;;;;;;12.83;32.40;99217.29;106001;1291;57213;-70
2022/12/09 11:21:35;;;;;;;27.30;15.80;;;;;;;12.60;33.15;99213.52;105839;1292;58661;-70
2022/12/09 11:24:25;;;;;;;26.70;15.30;;;;;;;12.48;33.30;99211.31;105855;1290;72371;-70
2022/12/09 11:27:35;;;;;;;25.90;15.40;;;;;;;12.29;33.71;99219.41;106006;1292;66208;-72
2022/12/09 11:30:55;;;;;;;27.60;17.10;;;;;;;12.05;34.26;99216.40;105839;1295;73602;-71
2022/12/09 11:34:18;;;;;;;28.60;17.10;;;;;;;11.68;34.56;99225.45;105981;1292;57402;-70
2022/12/09 11:37:10;;;;;;;31.90;19.50;;;;;;;11.24;35.40;99229.34;105709;1299;60045;-73
2022/12/09 11:39:58;;;;;;;38.00;19.60;;;;;;;10.85;35.98;99233.15;105901;1290;72745;-72
2022/12/09 11:42:52;;;;;;;33.00;18.90;;;;;;;10.23;36.75;99232.64;105986;1290;66680;-72
2022/12/09 11:45:46;;;;;;;28.90;16.80;;;;;;;9.79;37.45;99233.02;105968;1285;71537;-69
2022/12/09 11:48:34;;;;;;;28.60;16.70;;;;;;;9.14;38.53;99234.85;105830;1292;58594;-73
2022/12/09 11:51:42;;;;;;;33.30;18.30;;;;;;;8.55;39.75;99233.89;105883;1290;61348;-71
2022/12/09 11:54:50;;;;;;;28.00;15.90;;;;;;;7.32;41.86;99251.17;105855;1284;72046;-71
2022/12/09 11:58:03;;;;;;;25.00;13.60;;;;;;;5.77;44.15;99254.46;105880;1291;69087;-71
2022/12/09 12:01:03;;;;;;;25.30;12.70;;;;;;;4.50;47.33;99254.61;105898;1291;71153;-72
2022/12/09 12:04:04;;;;;;;24.50;13.20;;;;;;;3.67;49.47;99253.70;105988;1282;57255;-71
2022/12/09 12:07:00;;;;;;;27.90;13.40;;;;;;;2.84;51.96;99255.40;105870;1291;61620;-72
2022/12/09 12:09:57;;;;;;;26.10;12.00;;;;;;;2.12;54.44;99252.98;105893;1284;74199;-72
2022/12/09 12:13:27;;;;;;;23.60;11.50;;;;;;;2.50;55.57;99250.15;105879;1288;68061;-72
2022/12/09 12:16:18;;;;;;;27.90;13.90;;;;;;;3.07;54.54;99245.80;105758;1291;72939;-71
2022/12/09 12:19:24;;;;;;;32.00;14.50;;;;;;;3.31;53.79;99244.52;105977;1290;57251;-71
2022/12/09 12:22:31;;;;;;;38.20;17.30;;;;;;;3.40;53.62;99243.94;105980;1291;61583;-71
2022/12/09 12:25:39;;;;;;;37.80;17.00;;;;;;;2.97;53.76;99247.95;105978;1284;73788;-72
2022/12/09 12:28:53;;;;;;;43.00;19.20;;;;;;;2.54;54.95;99249.52;105970;1291;68955;-72
2022/12/09 12:32:20;;;;;;;38.50;17.70;;;;;;;1.89;56.98;99253.86;105864;1295;71439;-72
2022/12/09 12:35:52;;;;;;;38.60;16.50;;;;;;;1.25;58.66;99265.82;105884;1293;57301;-72
2022/12/09 12:39:12;;;;;;;40.00;16.70;;;;;;;0.75;60.32;99269.06;105839;1294;58900;-71
2022/12/09 12:42:26;;;;;;;39.70;16.20;;;;;;;0.38;62.46;99271.38;105901;1284;74092;-74
2022/12/09 12:49:11;;;;;;;34.80;15.20;;;;;;;-0.27;65.36;99276.01;105089;1291;1002300;-73
2022/12/09 12:52:31;;;;;;;30.30;12.70;;;;;;;-0.52;66.60;99280.07;105923;1295;57394;-73
2022/12/09 12:56:07;;;;;;;26.20;12.20;;;;;;;-0.85;68.97;99280.11;104757;1296;1002977;-71
2022/12/09 12:59:21;;;;;;;32.20;13.60;;;;;;;-1.12;70.28;99281.97;105466;1289;73011;-72
2022/12/09 13:02:37;;;;;;;29.40;12.20;;;;;;;-1.37;72.46;99278.84;105330;1297;67640;-74
2022/12/09 13:05:34;;;;;;;28.70;13.40;;;;;;;-1.59;73.92;99284.25;105367;1298;72280;-72
2022/12/09 13:09:32;;;;;;;30.30;12.30;;;;;;;-1.71;74.69;99293.58;105346;1297;58276;-74
2022/12/09 13:15:40;;;;;;;20.30;8.60;;;;;;;-1.94;76.61;99290.64;104170;1312;73254;-70
2022/12/09 13:18:34;;;;;;;20.90;7.80;;;;;;;-1.98;76.97;99290.30;103362;1315;1002257;-73
2022/12/09 13:21:22;;;;;;;17.20;6.20;;;;;;;-2.06;78.01;99289.88;104052;1304;73511;-73